createdAt,value
2023-04-08T00:01:22.687Z,100.00
2023-04-08T00:06:27.364Z,100.00
2023-04-08T00:11:32.848Z,100.00
2023-04-08T00:16:36.941Z,100.00
2023-04-08T00:21:40.864Z,100.00
2023-04-08T00:26:46.546Z,100.00
2023-04-08T00:31:51.495Z,100.00
2023-04-08T00:36:56.375Z,100.00
2023-04-08T00:42:02.179Z,100.00
2023-04-08T00:47:06.439Z,100.00
2023-04-08T00:52:11.195Z,100.00
2023-04-08T00:57:17.461Z,100.00
2023-04-08T01:02:28.246Z,100.00
2023-04-08T01:07:34.922Z,100.00
2023-04-08T01:12:44.042Z,100.00
2023-04-08T01:17:49.380Z,100.00
2023-04-08T01:23:04.038Z,100.00
2023-04-08T01:28:12.489Z,100.00
2023-04-08T01:33:17.996Z,100.00
2023-04-08T01:38:24.481Z,100.00
2023-04-08T01:43:32.427Z,100.00
2023-04-08T01:48:37.059Z,100.00
2023-04-08T01:53:41.277Z,100.00
2023-04-08T01:58:50.208Z,100.00
2023-04-08T02:03:57.824Z,100.00
2023-04-08T02:09:02.440Z,100.00
2023-04-08T02:14:07.750Z,100.00
2023-04-08T02:19:16.933Z,100.00
2023-04-08T02:24:21.817Z,100.00
2023-04-08T02:29:28.152Z,100.00
2023-04-08T02:34:32.858Z,100.00
2023-04-08T02:39:38.633Z,100.00
2023-04-08T02:44:44.086Z,100.00
2023-04-08T02:49:48.318Z,100.00
2023-04-08T02:54:52.296Z,100.00
2023-04-08T02:59:57.525Z,100.00
2023-04-08T03:05:01.658Z,100.00
2023-04-08T03:10:06.655Z,100.00
2023-04-08T03:15:12.810Z,100.00
2023-04-08T03:20:16.941Z,100.00
2023-04-08T03:25:20.912Z,100.00
2023-04-08T03:30:26.685Z,100.00
2023-04-08T03:35:31.213Z,100.00
2023-04-08T03:40:35.477Z,100.00
2023-04-08T03:45:40.939Z,100.00
2023-04-08T03:50:44.996Z,100.00
2023-04-08T03:55:50.558Z,100.00
2023-04-08T04:00:56.009Z,100.00
2023-04-08T04:05:59.880Z,100.00
2023-04-08T04:11:04.035Z,100.00
2023-04-08T04:16:09.588Z,100.00
2023-04-08T04:21:13.546Z,100.00
2023-04-08T04:26:17.880Z,100.00
2023-04-08T04:31:26.577Z,100.00
2023-04-08T04:36:31.703Z,100.00
2023-04-08T04:41:40.458Z,100.00
2023-04-08T04:46:46.002Z,100.00
2023-04-08T04:51:50.315Z,100.00
2023-04-08T04:56:54.527Z,100.00
2023-04-08T05:02:00.080Z,100.00
2023-04-08T05:07:04.057Z,100.00
2023-04-08T05:12:08.005Z,100.00
2023-04-08T05:17:13.707Z,100.00
2023-04-08T05:22:18.015Z,100.00
2023-04-08T05:27:21.896Z,100.00
2023-04-08T05:32:27.414Z,100.00
2023-04-08T05:37:31.465Z,100.00
2023-04-08T05:42:36.036Z,100.00
2023-04-08T05:47:41.566Z,100.00
2023-04-08T05:52:46.238Z,100.00
2023-04-08T05:57:50.425Z,100.00
2023-04-08T06:02:55.830Z,100.00
2023-04-08T06:07:59.918Z,100.00
2023-04-08T06:13:03.980Z,100.00
2023-04-08T06:18:09.644Z,100.00
2023-04-08T06:23:14.413Z,100.00
2023-04-08T06:28:18.816Z,100.00
2023-04-08T06:33:24.300Z,100.00
2023-04-08T06:38:28.561Z,100.00
2023-04-08T06:43:33.387Z,100.00
2023-04-08T06:48:39.213Z,100.00
2023-04-08T06:53:43.365Z,100.00
2023-04-08T06:58:47.346Z,100.00
2023-04-08T07:03:52.884Z,100.00
2023-04-08T07:08:57.333Z,100.00
2023-04-08T07:14:01.431Z,100.00
2023-04-08T07:19:06.835Z,100.00
2023-04-08T07:24:11.225Z,100.00
2023-04-08T07:29:15.279Z,100.00
2023-04-08T07:34:20.614Z,100.00
2023-04-08T07:39:24.536Z,100.00
2023-04-08T07:44:29.215Z,100.00
2023-04-08T07:49:34.851Z,100.00
2023-04-08T07:54:38.929Z,100.00
2023-04-08T07:59:42.883Z,100.00
2023-04-08T08:04:48.646Z,100.00
2023-04-08T08:09:52.801Z,100.00
2023-04-08T08:14:59.106Z,100.00
2023-04-08T08:20:05.722Z,100.00
2023-04-08T08:25:10.404Z,100.00
2023-04-08T08:30:14.837Z,100.00
2023-04-08T08:35:20.442Z,100.00
2023-04-08T08:40:24.453Z,100.00
2023-04-08T08:45:28.885Z,100.00
2023-04-08T08:50:34.397Z,100.00
2023-04-08T08:56:13.089Z,100.00
2023-04-08T09:01:03.582Z,100.00
2023-04-08T09:06:09.532Z,100.00
2023-04-08T09:11:15.962Z,100.00
2023-04-08T09:16:23.295Z,100.00
2023-04-08T09:21:28.697Z,100.00
2023-04-08T09:26:35.709Z,100.00
2023-04-08T09:31:41.925Z,100.00
2023-04-08T09:36:48.584Z,100.00
2023-04-08T09:41:53.458Z,100.00
2023-04-08T09:47:02.750Z,100.00
2023-04-08T09:52:09.516Z,100.00
2023-04-08T09:57:17.400Z,100.00
2023-04-08T10:02:30.760Z,100.00
2023-04-08T10:07:37.745Z,99.43
2023-04-08T10:12:42.408Z,94.56
2023-04-08T10:17:46.799Z,95.18
2023-04-08T10:22:52.666Z,95.15
2023-04-08T10:27:56.692Z,90.31
2023-04-08T10:33:01.533Z,88.48
2023-04-08T10:38:08.087Z,86.06
2023-04-08T10:43:13.671Z,88.53
2023-04-08T10:48:20.042Z,82.66
2023-04-08T10:53:30.342Z,83.81
2023-04-08T10:58:34.847Z,84.51
2023-04-08T11:03:39.193Z,79.76
2023-04-08T11:08:45.046Z,82.00
2023-04-08T11:13:53.502Z,82.35
2023-04-08T11:18:59.218Z,80.33
2023-04-08T11:24:07.909Z,79.97
2023-04-08T11:29:14.973Z,82.52
2023-04-08T11:34:24.694Z,85.26
2023-04-08T11:39:30.888Z,87.64
2023-04-08T11:44:35.355Z,85.50
2023-04-08T11:49:46.623Z,87.03
2023-04-08T11:54:52.108Z,89.51
2023-04-08T11:59:55.951Z,94.79
2023-04-08T12:04:59.835Z,94.44
2023-04-08T12:10:05.946Z,91.73
2023-04-08T12:15:11.168Z,91.30
2023-04-08T12:20:17.371Z,90.78
2023-04-08T12:25:22.928Z,91.65
2023-04-08T12:30:27.024Z,94.25
2023-04-08T12:35:31.178Z,93.97
2023-04-08T12:40:36.577Z,93.28
2023-04-08T12:45:40.833Z,95.12
2023-04-08T12:50:45.299Z,95.27
2023-04-08T12:55:51.473Z,92.50
2023-04-08T13:00:55.417Z,92.86
2023-04-08T13:05:59.994Z,92.37
2023-04-08T13:11:05.811Z,89.60
2023-04-08T13:16:09.955Z,92.84
2023-04-08T13:21:14.132Z,89.46
2023-04-08T13:26:19.652Z,90.53
2023-04-08T13:31:23.807Z,89.20
2023-04-08T13:36:28.682Z,89.97
2023-04-08T13:41:35.026Z,89.21
2023-04-08T13:46:39.635Z,90.44
2023-04-08T13:51:43.836Z,92.05
2023-04-08T13:56:50.031Z,91.01
2023-04-08T14:01:55.584Z,92.06
2023-04-08T14:06:59.505Z,90.48
2023-04-08T14:12:05.065Z,90.28
2023-04-08T14:17:09.221Z,87.70
2023-04-08T14:22:14.606Z,91.44
2023-04-08T14:27:20.117Z,91.66
2023-04-08T14:32:24.362Z,93.85
2023-04-08T14:37:28.465Z,98.12
2023-04-08T14:42:33.950Z,100.00
2023-04-08T14:47:40.785Z,100.00
2023-04-08T14:52:48.477Z,100.00
2023-04-08T14:57:53.693Z,100.00
2023-04-08T15:02:57.686Z,100.00
2023-04-08T15:08:02.526Z,100.00
2023-04-08T15:13:07.984Z,100.00
2023-04-08T15:18:12.151Z,100.00
2023-04-08T15:23:16.064Z,100.00
2023-04-08T15:28:21.420Z,100.00
2023-04-08T15:33:26.090Z,100.00
2023-04-08T15:38:30.425Z,100.00
2023-04-08T15:43:37.094Z,100.00
2023-04-08T15:48:42.730Z,100.00
2023-04-08T15:53:47.357Z,100.00
2023-04-08T15:58:53.558Z,100.00
2023-04-08T16:03:57.664Z,100.00
2023-04-08T16:09:02.570Z,100.00
2023-04-08T16:14:08.064Z,100.00
2023-04-08T16:19:12.428Z,100.00
2023-04-08T16:24:16.570Z,100.00
2023-04-08T16:29:22.778Z,100.00
2023-04-08T16:34:26.818Z,100.00
2023-04-08T16:39:31.126Z,100.00
2023-04-08T16:44:36.888Z,100.00
2023-04-08T16:49:40.932Z,100.00
2023-04-08T16:54:46.156Z,100.00
2023-04-08T16:59:51.565Z,100.00
2023-04-08T17:04:55.480Z,100.00
2023-04-08T17:09:59.644Z,100.00
2023-04-08T17:15:05.586Z,100.00
2023-04-08T17:20:10.530Z,100.00
2023-04-08T17:25:14.751Z,100.00
2023-04-08T17:30:20.285Z,100.00
2023-04-08T17:35:24.273Z,100.00
2023-04-08T17:40:28.534Z,100.00
2023-04-08T17:45:33.762Z,100.00
2023-04-08T17:50:38.176Z,100.00
2023-04-08T17:55:42.284Z,100.00
2023-04-08T18:00:48.867Z,100.00
2023-04-08T18:05:55.198Z,100.00
2023-04-08T18:10:59.128Z,100.00
2023-04-08T18:16:04.630Z,100.00
2023-04-08T18:21:09.309Z,100.00
2023-04-08T18:26:13.453Z,100.00
2023-04-08T18:31:19.246Z,100.00
2023-04-08T18:36:23.469Z,100.00
2023-04-08T18:41:28.007Z,100.00
2023-04-08T18:46:33.959Z,100.00
2023-04-08T18:51:39.568Z,100.00
2023-04-08T18:56:45.654Z,100.00
2023-04-08T19:01:51.164Z,100.00
2023-04-08T19:06:55.168Z,100.00
2023-04-08T19:11:59.302Z,100.00
2023-04-08T19:17:04.559Z,100.00
2023-04-08T19:22:08.456Z,100.00
2023-04-08T19:27:14.079Z,100.00
2023-04-08T19:32:20.076Z,100.00
2023-04-08T19:37:24.392Z,100.00
2023-04-08T19:42:28.336Z,100.00
2023-04-08T19:47:33.794Z,100.00
2023-04-08T19:52:38.017Z,100.00
2023-04-08T19:57:42.369Z,100.00
2023-04-08T20:02:48.055Z,100.00
2023-04-08T20:07:52.164Z,100.00
2023-04-08T20:12:56.415Z,100.00
2023-04-08T20:18:01.715Z,100.00
2023-04-08T20:23:05.930Z,100.00
2023-04-08T20:28:09.970Z,100.00
2023-04-08T20:33:15.427Z,100.00
2023-04-08T20:38:19.675Z,100.00
2023-04-08T20:43:23.806Z,100.00
2023-04-08T20:48:29.685Z,100.00
2023-04-08T20:53:34.512Z,100.00
2023-04-08T20:58:39.003Z,100.00
2023-04-08T21:03:44.505Z,100.00
2023-04-08T21:08:49.153Z,100.00
2023-04-08T21:13:53.251Z,100.00
2023-04-08T21:19:01.365Z,100.00
2023-04-08T21:24:07.082Z,100.00
2023-04-08T21:29:12.189Z,100.00
2023-04-08T21:34:17.660Z,100.00
2023-04-08T21:39:22.538Z,100.00
2023-04-08T21:44:26.792Z,100.00
2023-04-08T21:49:32.301Z,100.00
2023-04-08T21:54:36.233Z,100.00
2023-04-08T21:59:40.893Z,100.00
2023-04-08T22:04:46.437Z,100.00
2023-04-08T22:09:50.541Z,100.00
2023-04-08T22:14:55.048Z,100.00
2023-04-08T22:20:00.493Z,100.00
2023-04-08T22:25:04.770Z,100.00
2023-04-08T22:30:09.835Z,100.00
2023-04-08T22:35:15.409Z,100.00
2023-04-08T22:40:19.548Z,100.00
2023-04-08T22:45:23.742Z,100.00
2023-04-08T22:50:29.236Z,100.00
2023-04-08T22:55:33.239Z,100.00
2023-04-08T23:00:37.273Z,100.00
2023-04-08T23:05:42.608Z,100.00
2023-04-08T23:10:46.731Z,100.00
2023-04-08T23:15:50.861Z,100.00
2023-04-08T23:20:57.187Z,100.00
2023-04-08T23:26:01.213Z,100.00
2023-04-08T23:31:05.807Z,100.00
2023-04-08T23:36:11.822Z,100.00
2023-04-08T23:41:15.965Z,100.00
2023-04-08T23:46:20.473Z,100.00
2023-04-08T23:51:26.163Z,100.00
2023-04-08T23:56:30.283Z,100.00
